createdAt,value
2022-12-05T00:01:18.806Z,76.46
2022-12-05T00:03:47.177Z,76.86
2022-12-05T00:06:15.223Z,76.69
2022-12-05T00:08:43.027Z,76.63
2022-12-05T00:11:15.439Z,76.88
2022-12-05T00:13:45.740Z,76.46
2022-12-05T00:16:16.510Z,76.35
2022-12-05T00:18:44.437Z,76.04
2022-12-05T00:21:15.184Z,76.72
2022-12-05T00:23:42.813Z,77.15
2022-12-05T00:26:11.207Z,76.67
2022-12-05T00:28:39.079Z,76.89
2022-12-05T00:31:08.734Z,76.65
2022-12-05T00:33:37.735Z,77.00
2022-12-05T00:36:07.634Z,76.52
2022-12-05T00:38:35.364Z,76.71
2022-12-05T00:41:04.292Z,76.03
2022-12-05T00:43:31.855Z,76.83
2022-12-05T00:46:02.413Z,75.93
2022-12-05T00:48:31.064Z,75.92
2022-12-05T00:51:04.023Z,75.45
2022-12-05T00:53:31.689Z,75.27
2022-12-05T00:56:03.565Z,75.09
2022-12-05T00:58:31.232Z,75.89
2022-12-05T01:00:59.368Z,75.55
2022-12-05T01:03:27.006Z,76.29
2022-12-05T01:05:54.637Z,75.87
2022-12-05T01:08:23.458Z,75.21
2022-12-05T01:10:54.979Z,75.49
2022-12-05T01:13:23.180Z,74.81
2022-12-05T01:15:50.905Z,74.38
2022-12-05T01:18:18.943Z,75.19
2022-12-05T01:20:47.142Z,75.28
2022-12-05T01:23:15.116Z,74.60
2022-12-05T01:25:46.592Z,75.22
2022-12-05T01:28:14.868Z,75.20
2022-12-05T01:30:48.483Z,75.24
2022-12-05T01:33:17.059Z,75.69
2022-12-05T01:35:45.115Z,75.46
2022-12-05T01:38:13.835Z,75.43
2022-12-05T01:40:42.303Z,74.73
2022-12-05T01:43:16.747Z,74.18
2022-12-05T01:45:46.727Z,74.22
2022-12-05T01:48:19.145Z,74.18
2022-12-05T01:50:48.589Z,74.33
2022-12-05T01:53:17.235Z,74.09
2022-12-05T01:55:46.327Z,74.01
2022-12-05T01:58:16.592Z,74.42
2022-12-05T02:00:44.868Z,74.59
2022-12-05T02:03:18.159Z,74.55
2022-12-05T02:05:49.518Z,74.60
2022-12-05T02:08:17.591Z,75.29
2022-12-05T02:10:47.386Z,74.96
2022-12-05T02:13:50.565Z,74.93
2022-12-05T02:16:28.528Z,74.52
2022-12-05T02:19:13.903Z,75.04
2022-12-05T02:22:01.393Z,74.74
2022-12-05T02:25:04.280Z,74.54
2022-12-05T02:27:58.763Z,75.08
2022-12-05T02:30:30.551Z,74.09
2022-12-05T02:33:08.125Z,73.80
2022-12-05T02:35:47.811Z,74.21
2022-12-05T02:38:25.996Z,75.02
2022-12-05T02:41:03.403Z,74.12
2022-12-05T02:43:38.128Z,73.68
2022-12-05T02:46:11.020Z,74.72
2022-12-05T02:48:39.750Z,74.47
2022-12-05T02:51:10.548Z,74.63
2022-12-05T02:53:39.963Z,75.15
2022-12-05T02:56:08.678Z,75.16
2022-12-05T02:58:43.034Z,74.92
2022-12-05T03:01:12.434Z,74.50
2022-12-05T03:03:40.080Z,74.72
2022-12-05T03:06:14.278Z,74.67
2022-12-05T03:08:46.553Z,74.54
2022-12-05T03:11:15.457Z,74.64
2022-12-05T03:13:46.710Z,75.05
2022-12-05T03:16:21.084Z,73.28
2022-12-05T03:18:52.264Z,73.49
2022-12-05T03:21:26.981Z,73.20
2022-12-05T03:23:59.245Z,73.46
2022-12-05T03:26:38.713Z,73.23
2022-12-05T03:29:25.077Z,73.89
2022-12-05T03:32:01.185Z,74.52
2022-12-05T03:34:43.316Z,74.10
2022-12-05T03:37:16.021Z,72.95
2022-12-05T03:39:49.035Z,73.72
2022-12-05T03:42:23.483Z,73.96
2022-12-05T03:44:56.147Z,74.39
2022-12-05T03:47:31.489Z,73.42
2022-12-05T03:50:04.316Z,73.83
2022-12-05T03:52:45.989Z,73.85
2022-12-05T03:55:24.465Z,73.68
2022-12-05T03:57:58.458Z,73.65
2022-12-05T04:00:27.036Z,73.22
2022-12-05T04:02:58.856Z,73.17
2022-12-05T04:05:32.289Z,73.18
2022-12-05T04:08:04.725Z,73.52
2022-12-05T04:10:48.284Z,73.76
2022-12-05T04:13:19.398Z,74.05
2022-12-05T04:16:09.538Z,73.85
2022-12-05T04:18:43.720Z,74.47
2022-12-05T04:21:30.009Z,73.58
2022-12-05T04:24:15.286Z,74.65
2022-12-05T04:26:49.318Z,73.42
2022-12-05T04:29:26.835Z,73.07
2022-12-05T04:31:59.919Z,72.84
2022-12-05T04:34:30.562Z,73.49
2022-12-05T04:37:04.365Z,73.35
2022-12-05T04:39:38.430Z,73.40
2022-12-05T04:42:08.804Z,73.39
2022-12-05T04:44:41.646Z,73.59
2022-12-05T04:47:11.235Z,73.53
2022-12-05T04:49:42.186Z,73.03
2022-12-05T04:52:12.313Z,73.24
2022-12-05T04:54:44.630Z,72.85
2022-12-05T04:57:18.612Z,72.41
2022-12-05T04:59:46.699Z,72.46
2022-12-05T05:02:19.188Z,72.23
2022-12-05T05:04:51.984Z,73.07
2022-12-05T05:07:20.223Z,73.14
2022-12-05T05:09:47.803Z,73.70
2022-12-05T05:12:19.004Z,73.70
2022-12-05T05:14:47.006Z,73.86
2022-12-05T05:17:14.606Z,73.59
2022-12-05T05:19:42.171Z,73.45
2022-12-05T05:22:11.017Z,73.52
2022-12-05T05:24:38.542Z,73.84
2022-12-05T05:27:06.051Z,73.55
2022-12-05T05:29:33.588Z,73.56
2022-12-05T05:32:01.080Z,73.21
2022-12-05T05:34:28.708Z,73.27
2022-12-05T05:36:56.222Z,73.36
2022-12-05T05:39:26.825Z,73.20
2022-12-05T05:41:54.330Z,73.10
2022-12-05T05:44:21.861Z,72.86
2022-12-05T05:46:49.435Z,73.44
2022-12-05T05:49:17.028Z,73.61
2022-12-05T05:51:44.575Z,73.16
2022-12-05T05:54:12.133Z,72.86
2022-12-05T05:56:41.110Z,72.52
2022-12-05T05:59:08.638Z,72.85
2022-12-05T06:01:36.143Z,72.95
2022-12-05T06:04:03.770Z,72.66
2022-12-05T06:06:31.379Z,72.86
2022-12-05T06:08:58.911Z,72.69
2022-12-05T06:11:28.520Z,72.80
2022-12-05T06:13:58.432Z,72.79
2022-12-05T06:16:26.484Z,73.06
2022-12-05T06:18:54.763Z,73.11
2022-12-05T06:21:23.049Z,73.47
2022-12-05T06:23:51.234Z,73.22
2022-12-05T06:26:21.597Z,72.84
2022-12-05T06:28:49.779Z,73.32
2022-12-05T06:31:20.840Z,72.94
2022-12-05T06:33:48.564Z,73.27
2022-12-05T06:36:18.086Z,73.30
2022-12-05T06:38:45.672Z,73.58
2022-12-05T06:41:16.315Z,73.45
2022-12-05T06:43:44.556Z,73.35
2022-12-05T06:46:14.336Z,73.97
2022-12-05T06:48:43.342Z,73.61
2022-12-05T06:51:11.779Z,73.54
2022-12-05T06:53:39.471Z,73.40
2022-12-05T06:56:12.359Z,73.07
2022-12-05T06:58:39.935Z,73.22
2022-12-05T07:01:30.242Z,73.26
2022-12-05T07:03:59.329Z,73.30
2022-12-05T07:06:27.412Z,73.57
2022-12-05T07:08:54.955Z,73.46
2022-12-05T07:11:22.502Z,73.68
2022-12-05T07:13:50.035Z,73.36
2022-12-05T07:16:17.600Z,73.21
2022-12-05T07:18:45.206Z,73.20
2022-12-05T07:21:16.432Z,73.62
2022-12-05T07:23:46.120Z,73.80
2022-12-05T07:26:17.397Z,73.59
2022-12-05T07:28:44.939Z,73.60
2022-12-05T07:31:14.480Z,73.83
2022-12-05T07:33:42.231Z,73.77
2022-12-05T07:36:12.217Z,73.73
2022-12-05T07:38:41.506Z,73.90
2022-12-05T07:41:13.534Z,74.17
2022-12-05T07:43:41.386Z,74.02
2022-12-05T07:46:11.285Z,74.19
2022-12-05T07:48:39.327Z,74.09
2022-12-05T07:51:08.610Z,74.34
2022-12-05T07:53:36.606Z,74.51
2022-12-05T07:56:07.553Z,74.75
2022-12-05T07:58:35.984Z,74.60
2022-12-05T08:01:07.785Z,74.46
2022-12-05T08:03:35.369Z,74.46
2022-12-05T08:06:04.383Z,74.42
2022-12-05T08:08:31.982Z,74.15
2022-12-05T08:11:05.791Z,74.45
2022-12-05T08:13:33.466Z,74.08
2022-12-05T08:16:03.622Z,73.85
2022-12-05T08:18:31.813Z,73.73
2022-12-05T08:21:03.390Z,74.00
2022-12-05T08:23:31.817Z,74.33
2022-12-05T08:26:02.948Z,74.06
2022-12-05T08:28:32.597Z,74.27
2022-12-05T08:31:05.330Z,74.67
2022-12-05T08:33:32.748Z,74.66
2022-12-05T08:36:02.207Z,74.00
2022-12-05T08:38:29.858Z,74.27
2022-12-05T08:40:57.397Z,74.56
2022-12-05T08:43:24.881Z,74.84
2022-12-05T08:45:54.513Z,75.24
2022-12-05T08:48:29.025Z,74.75
2022-12-05T08:50:57.365Z,74.98
2022-12-05T08:53:24.877Z,75.02
2022-12-05T08:55:52.638Z,75.02
2022-12-05T08:58:20.195Z,74.51
2022-12-05T09:00:47.749Z,74.69
2022-12-05T09:03:16.581Z,74.48
2022-12-05T09:05:44.108Z,74.22
2022-12-05T09:08:12.208Z,74.21
2022-12-05T09:10:39.783Z,74.34
2022-12-05T09:13:07.344Z,74.38
2022-12-05T09:15:34.926Z,74.89
2022-12-05T09:18:02.491Z,74.59
2022-12-05T09:20:31.351Z,74.28
2022-12-05T09:22:58.899Z,73.98
2022-12-05T09:25:26.413Z,74.08
2022-12-05T09:27:54.755Z,74.66
2022-12-05T09:30:22.324Z,74.45
2022-12-05T09:32:49.834Z,74.45
2022-12-05T09:35:17.386Z,74.03
2022-12-05T09:37:46.233Z,74.30
2022-12-05T09:40:17.736Z,74.58
2022-12-05T09:42:57.436Z,74.37
2022-12-05T09:45:29.913Z,73.92
2022-12-05T09:48:01.222Z,74.37
2022-12-05T09:50:31.483Z,73.87
2022-12-05T09:53:12.513Z,73.97
2022-12-05T09:55:47.070Z,73.59
2022-12-05T09:58:22.927Z,73.99
2022-12-05T10:00:53.863Z,73.95
2022-12-05T10:03:28.552Z,73.56
2022-12-05T10:06:05.883Z,73.81
2022-12-05T10:08:42.905Z,74.59
2022-12-05T10:11:15.282Z,74.65
2022-12-05T10:13:54.907Z,74.21
2022-12-05T10:16:30.379Z,73.94
2022-12-05T10:19:03.733Z,73.91
2022-12-05T10:21:34.528Z,73.45
2022-12-05T10:24:05.885Z,73.32
2022-12-05T10:26:37.671Z,72.95
2022-12-05T10:29:22.355Z,72.71
2022-12-05T10:31:51.107Z,72.80
2022-12-05T10:34:28.953Z,72.85
2022-12-05T10:37:01.790Z,72.63
2022-12-05T10:39:30.537Z,72.91
2022-12-05T10:41:58.210Z,72.41
2022-12-05T10:44:25.940Z,72.55
2022-12-05T10:46:53.589Z,72.60
2022-12-05T10:49:22.022Z,72.74
2022-12-05T10:51:50.071Z,73.24
2022-12-05T10:54:21.807Z,73.45
2022-12-05T10:56:52.388Z,72.94
2022-12-05T10:59:21.843Z,72.83
2022-12-05T11:01:53.228Z,72.69
2022-12-05T11:04:25.710Z,72.72
2022-12-05T11:06:57.571Z,72.53
2022-12-05T11:09:27.335Z,73.05
2022-12-05T11:12:04.044Z,72.53
2022-12-05T11:14:33.432Z,72.60
2022-12-05T11:17:02.891Z,72.47
2022-12-05T11:19:32.955Z,72.22
2022-12-05T11:22:01.323Z,72.44
2022-12-05T11:24:31.439Z,72.10
2022-12-05T11:27:02.045Z,71.90
2022-12-05T11:29:32.384Z,72.26
2022-12-05T11:31:59.912Z,72.41
2022-12-05T11:34:32.873Z,72.50
2022-12-05T11:37:05.905Z,72.19
2022-12-05T11:39:34.043Z,72.38
2022-12-05T11:42:17.955Z,72.18
2022-12-05T11:45:23.093Z,73.26
2022-12-05T11:48:03.562Z,72.82
2022-12-05T11:50:43.777Z,72.82
2022-12-05T11:53:40.352Z,72.25
2022-12-05T11:56:19.099Z,72.58
2022-12-05T11:59:03.261Z,72.43
2022-12-05T12:01:46.314Z,72.79
2022-12-05T12:04:21.777Z,73.00
2022-12-05T12:07:02.705Z,72.97
2022-12-05T12:09:41.308Z,71.90
2022-12-05T12:12:21.164Z,71.80
2022-12-05T12:14:59.909Z,72.20
2022-12-05T12:17:35.297Z,72.23
2022-12-05T12:20:07.751Z,72.75
2022-12-05T12:22:52.177Z,72.52
2022-12-05T12:25:27.067Z,71.64
2022-12-05T12:28:06.195Z,72.72
2022-12-05T12:30:47.895Z,72.42
2022-12-05T12:33:26.947Z,71.64
2022-12-05T12:36:02.032Z,72.15
2022-12-05T12:38:59.132Z,71.08
2022-12-05T12:41:42.858Z,72.60
2022-12-05T12:44:40.170Z,71.53
2022-12-05T12:47:18.157Z,71.93
2022-12-05T12:50:03.651Z,71.62
2022-12-05T12:52:46.047Z,72.32
2022-12-05T12:55:22.521Z,72.23
2022-12-05T12:58:01.503Z,72.33
2022-12-05T13:00:40.852Z,71.92
2022-12-05T13:03:17.339Z,72.13
2022-12-05T13:05:48.838Z,72.28
2022-12-05T13:08:25.026Z,72.10
2022-12-05T13:10:53.382Z,72.34
2022-12-05T13:13:25.172Z,72.02
2022-12-05T13:15:55.838Z,71.81
2022-12-05T13:18:26.360Z,71.72
2022-12-05T13:20:56.562Z,71.87
2022-12-05T13:23:27.673Z,71.13
2022-12-05T13:25:58.624Z,71.32
2022-12-05T13:28:31.664Z,72.02
2022-12-05T13:31:02.745Z,72.17
2022-12-05T13:33:37.908Z,71.33
2022-12-05T13:36:29.603Z,71.35
2022-12-05T13:39:17.562Z,71.58
2022-12-05T13:42:04.797Z,71.50
2022-12-05T13:44:39.309Z,70.91
2022-12-05T13:47:10.126Z,71.74
2022-12-05T13:49:45.693Z,71.79
2022-12-05T13:52:16.839Z,72.53
2022-12-05T13:54:48.320Z,71.85
2022-12-05T13:57:47.617Z,72.05
2022-12-05T14:00:27.137Z,70.78
2022-12-05T14:02:56.784Z,70.60
2022-12-05T14:05:40.022Z,70.68
2022-12-05T14:08:47.674Z,71.01
2022-12-05T14:11:15.232Z,71.59
2022-12-05T14:13:45.235Z,71.01
2022-12-05T14:16:44.257Z,70.92
2022-12-05T14:19:46.373Z,70.83
2022-12-05T14:22:50.648Z,70.63
2022-12-05T14:25:32.060Z,71.52
2022-12-05T14:28:11.788Z,71.38
2022-12-05T14:30:53.161Z,72.09
2022-12-05T14:33:23.713Z,71.71
2022-12-05T14:35:53.635Z,71.47
2022-12-05T14:38:24.785Z,71.74
2022-12-05T14:40:53.660Z,70.89
2022-12-05T14:43:27.320Z,70.95
2022-12-05T14:46:01.417Z,70.61
2022-12-05T14:48:32.746Z,70.56
2022-12-05T14:51:01.767Z,70.37
2022-12-05T14:53:38.538Z,70.70
2022-12-05T14:56:16.185Z,70.28
2022-12-05T14:58:49.783Z,69.92
2022-12-05T15:01:21.836Z,70.76
2022-12-05T15:04:09.177Z,71.43
2022-12-05T15:06:46.323Z,70.92
2022-12-05T15:09:38.516Z,70.32
2022-12-05T15:12:14.063Z,70.69
2022-12-05T15:14:47.300Z,71.02
2022-12-05T15:17:19.331Z,70.96
2022-12-05T15:19:58.391Z,70.71
2022-12-05T15:22:29.058Z,70.45
2022-12-05T15:24:56.968Z,70.72
2022-12-05T15:27:26.129Z,71.33
2022-12-05T15:29:56.468Z,71.52
2022-12-05T15:32:28.704Z,71.50
2022-12-05T15:35:02.347Z,71.96
2022-12-05T15:37:35.678Z,71.77
2022-12-05T15:40:09.794Z,71.47
2022-12-05T15:42:43.249Z,72.02
2022-12-05T15:45:21.670Z,72.10
2022-12-05T15:47:50.684Z,71.61
2022-12-05T15:50:24.904Z,70.95
2022-12-05T15:52:58.433Z,70.98
2022-12-05T15:55:30.404Z,71.20
2022-12-05T15:58:11.223Z,70.86
2022-12-05T16:00:44.011Z,71.20
2022-12-05T16:03:17.682Z,71.12
2022-12-05T16:05:52.091Z,71.56
2022-12-05T16:08:20.141Z,71.38
2022-12-05T16:10:47.873Z,71.77
2022-12-05T16:13:27.849Z,71.78
2022-12-05T16:15:56.249Z,71.53
2022-12-05T16:18:28.378Z,71.96
2022-12-05T16:20:56.359Z,71.96
2022-12-05T16:23:27.526Z,72.33
2022-12-05T16:26:10.569Z,71.96
2022-12-05T16:28:39.401Z,72.50
2022-12-05T16:31:07.774Z,72.41
2022-12-05T16:33:40.202Z,72.23
2022-12-05T16:36:11.643Z,72.49
2022-12-05T16:38:40.804Z,72.33
2022-12-05T16:41:09.229Z,72.71
2022-12-05T16:43:46.177Z,72.83
2022-12-05T16:46:42.292Z,72.99
2022-12-05T16:49:22.158Z,73.46
2022-12-05T16:51:59.654Z,73.53
2022-12-05T16:54:27.227Z,73.59
2022-12-05T16:56:55.003Z,73.54
2022-12-05T16:59:27.888Z,74.37
2022-12-05T17:01:55.524Z,73.95
2022-12-05T17:04:23.104Z,74.54
2022-12-05T17:06:50.674Z,74.20
2022-12-05T17:09:18.143Z,74.62
2022-12-05T17:11:48.078Z,74.35
2022-12-05T17:14:18.076Z,74.67
2022-12-05T17:16:47.228Z,74.38
2022-12-05T17:19:15.050Z,74.43
2022-12-05T17:21:43.629Z,74.54
2022-12-05T17:24:16.530Z,74.88
2022-12-05T17:26:44.552Z,74.47
2022-12-05T17:29:14.851Z,74.54
2022-12-05T17:31:42.453Z,74.46
2022-12-05T17:34:16.630Z,73.95
2022-12-05T17:36:44.334Z,74.36
2022-12-05T17:39:11.943Z,74.74
2022-12-05T17:41:39.513Z,74.24
2022-12-05T17:44:07.973Z,74.43
2022-12-05T17:46:35.526Z,74.09
2022-12-05T17:49:03.178Z,74.38
2022-12-05T17:51:32.333Z,74.30
2022-12-05T17:53:59.881Z,74.40
2022-12-05T17:56:27.380Z,74.48
2022-12-05T17:58:54.885Z,75.02
2022-12-05T18:01:22.462Z,75.18
2022-12-05T18:03:50.074Z,74.91
2022-12-05T18:06:18.592Z,74.14
2022-12-05T18:08:47.450Z,73.81
2022-12-05T18:11:16.534Z,74.24
2022-12-05T18:13:44.040Z,74.96
2022-12-05T18:16:12.236Z,74.71
2022-12-05T18:18:40.269Z,75.03
2022-12-05T18:21:09.519Z,74.46
2022-12-05T18:23:38.229Z,74.90
2022-12-05T18:26:12.434Z,75.32
2022-12-05T18:28:40.665Z,75.18
2022-12-05T18:31:10.705Z,74.88
2022-12-05T18:33:38.305Z,74.34
2022-12-05T18:36:29.615Z,74.79
2022-12-05T18:38:59.379Z,74.72
2022-12-05T18:41:28.655Z,74.76
2022-12-05T18:43:56.277Z,74.90
2022-12-05T18:46:24.850Z,74.88
2022-12-05T18:48:52.470Z,74.93
2022-12-05T18:51:22.083Z,75.05
2022-12-05T18:53:53.264Z,74.93
2022-12-05T18:56:24.622Z,75.48
2022-12-05T18:59:00.303Z,75.28
2022-12-05T19:01:31.336Z,74.94
2022-12-05T19:04:00.733Z,74.32
2022-12-05T19:06:30.614Z,74.35
2022-12-05T19:09:01.019Z,73.81
2022-12-05T19:11:29.946Z,74.37
2022-12-05T19:14:01.458Z,75.13
2022-12-05T19:16:37.449Z,75.04
2022-12-05T19:19:17.068Z,74.38
2022-12-05T19:21:46.771Z,74.02
2022-12-05T19:24:24.514Z,74.01
2022-12-05T19:26:55.799Z,74.36
2022-12-05T19:29:31.451Z,74.04
2022-12-05T19:32:01.395Z,73.83
2022-12-05T19:34:29.226Z,73.63
2022-12-05T19:36:57.231Z,73.84
2022-12-05T19:39:27.079Z,73.23
2022-12-05T19:41:57.451Z,72.96
2022-12-05T19:44:27.260Z,73.78
2022-12-05T19:46:55.305Z,73.94
2022-12-05T19:49:24.030Z,73.28
2022-12-05T19:51:52.620Z,73.14
2022-12-05T19:54:22.049Z,73.06
2022-12-05T19:56:49.886Z,73.01
2022-12-05T19:59:18.182Z,73.23
2022-12-05T20:01:50.946Z,73.05
2022-12-05T20:04:18.809Z,73.64
2022-12-05T20:06:48.680Z,73.01
2022-12-05T20:09:19.152Z,73.25
2022-12-05T20:11:56.049Z,73.38
2022-12-05T20:14:26.987Z,73.91
2022-12-05T20:16:57.232Z,74.51
2022-12-05T20:19:25.181Z,75.40
2022-12-05T20:21:55.107Z,75.01
2022-12-05T20:24:22.848Z,74.83
2022-12-05T20:26:50.484Z,74.06
2022-12-05T20:29:18.079Z,74.36
2022-12-05T20:31:45.808Z,73.85
2022-12-05T20:34:15.782Z,74.53
2022-12-05T20:36:44.058Z,74.64
2022-12-05T20:39:14.619Z,74.72
2022-12-05T20:41:42.370Z,75.05
2022-12-05T20:44:11.784Z,75.73
2022-12-05T20:46:39.661Z,75.43
2022-12-05T20:49:07.260Z,75.37
2022-12-05T20:51:36.285Z,75.37
2022-12-05T20:54:05.490Z,74.53
2022-12-05T20:56:34.286Z,74.00
2022-12-05T20:59:03.880Z,74.10
2022-12-05T21:01:33.647Z,74.72
2022-12-05T21:04:02.143Z,74.94
2022-12-05T21:06:31.264Z,74.97
2022-12-05T21:09:01.222Z,75.55
2022-12-05T21:11:30.773Z,75.31
2022-12-05T21:14:00.158Z,74.88
2022-12-05T21:16:28.247Z,74.99
2022-12-05T21:18:56.559Z,74.86
2022-12-05T21:21:26.958Z,75.41
2022-12-05T21:23:56.657Z,76.36
2022-12-05T21:26:27.550Z,75.25
2022-12-05T21:28:55.624Z,75.43
2022-12-05T21:31:26.268Z,75.50
2022-12-05T21:33:55.784Z,75.44
2022-12-05T21:36:25.774Z,75.67
2022-12-05T21:38:56.229Z,76.07
2022-12-05T21:41:26.360Z,76.30
2022-12-05T21:43:55.617Z,76.11
2022-12-05T21:46:24.650Z,75.27
2022-12-05T21:48:52.634Z,74.43
2022-12-05T21:51:21.011Z,74.33
2022-12-05T21:53:48.834Z,73.74
2022-12-05T21:56:23.000Z,73.90
2022-12-05T21:58:53.259Z,74.12
2022-12-05T22:01:22.910Z,74.13
2022-12-05T22:03:52.715Z,74.66
2022-12-05T22:06:20.369Z,74.36
2022-12-05T22:08:48.127Z,74.08
2022-12-05T22:11:18.082Z,74.70
2022-12-05T22:13:46.303Z,74.64
2022-12-05T22:16:15.928Z,75.11
2022-12-05T22:18:43.579Z,75.53
2022-12-05T22:21:12.990Z,76.42
2022-12-05T22:23:40.620Z,76.37
2022-12-05T22:26:11.073Z,76.23
2022-12-05T22:28:39.739Z,76.28
2022-12-05T22:31:10.283Z,76.43
2022-12-05T22:33:39.890Z,76.17
2022-12-05T22:36:09.392Z,76.34
2022-12-05T22:38:39.549Z,75.84
2022-12-05T22:41:10.000Z,75.14
2022-12-05T22:43:38.940Z,74.62
2022-12-05T22:46:07.685Z,74.67
2022-12-05T22:48:36.173Z,74.76
2022-12-05T22:51:06.612Z,74.39
2022-12-05T22:53:34.754Z,75.14
2022-12-05T22:56:04.418Z,75.71
2022-12-05T22:58:32.826Z,76.08
2022-12-05T23:01:10.243Z,76.74
2022-12-05T23:03:38.133Z,75.77
2022-12-05T23:06:11.754Z,74.76
2022-12-05T23:08:42.481Z,74.78
2022-12-05T23:11:11.003Z,74.31
2022-12-05T23:13:39.900Z,74.34
2022-12-05T23:16:09.468Z,74.59
2022-12-05T23:18:46.678Z,74.91
2022-12-05T23:21:19.603Z,75.16
2022-12-05T23:23:47.524Z,75.26
2022-12-05T23:26:16.559Z,75.02
2022-12-05T23:28:44.849Z,75.48
2022-12-05T23:31:13.762Z,75.26
2022-12-05T23:33:42.678Z,74.61
2022-12-05T23:36:11.087Z,74.45
2022-12-05T23:38:42.123Z,74.42
2022-12-05T23:41:13.409Z,74.49
2022-12-05T23:43:41.520Z,74.21
2022-12-05T23:46:09.897Z,74.19
2022-12-05T23:48:37.888Z,74.63
2022-12-05T23:51:09.422Z,74.62
2022-12-05T23:53:39.419Z,74.35
2022-12-05T23:56:11.435Z,74.29
2022-12-05T23:58:39.560Z,74.44
